Vremea mâine în Caransebes - Romania

Vrei sa afli care e starea vremii acum in Caras-Severin - Romania? Dorim sa iti furnizam starea vremii pentru Caras-Severin - Romania. Starea vremii Caras-Severin - Romania pentru astazi.

Vremea mâine în Caransebes

Temperatura minimă:
8.5 °C

Temperatura maximă:
24.5 °C

Mâine va fi: Senin
Precipitații: 0 %
Umiditate: 58%
Viteza maximă vânt mâine:
9 km/h

Evoluția vremii in Caransebes pe ore mâine

Ora: 04:00
Temperatura: °C
Sansa de precipitatii: %
Ora Descriere Temp Se simte Precipitatii Umiditate Vant
00:00Senin9.5°8.8°0%80%ESE 6.5 KM/H
01:00Senin9.3°8.5°0%78%ESE 6.5 KM/H
02:00Senin8.3°0%76%ESE 6.1 KM/H
03:00Senin8.2°0%75%ESE 6.5 KM/H
04:00Senin8.8°0%74%ESE 6.5 KM/H
05:00Senin8.6°7.9°0%73%ESE 6.1 KM/H
06:00Senin8.5°7.5°0%72%ESE 6.8 KM/H
07:00Senin0%71%ESE 7.2 KM/H
08:00Senin12.5°12.4°0%64%ESE 5.8 KM/H
09:00Senin17.9°18°0%51%SE 4.7 KM/H
10:00Senin20.7°20.7°0%44%S 4 KM/H
11:00Senin22°22°0%39%SW 5.8 KM/H
12:00Senin22.8°24.2°0%38%WSW 7.2 KM/H
13:00Senin23.4°24.4°0%38%W 8.6 KM/H
14:00Senin24°24.6°0%36%W 8.3 KM/H
15:00Senin24.5°24.8°0%35%W 9 KM/H
16:00Senin24.4°24.7°0%35%WNW 9 KM/H
17:00Senin23.9°24.6°0%38%WNW 6.5 KM/H
18:00Senin22.9°24.5°0%43%WNW 2.5 KM/H
19:00Senin21.1°21.1°0%56%SSE 1.8 KM/H
20:00Senin16.4°16.4°0%64%SE 6.1 KM/H
21:00Senin13.9°13.5°0%70%SE 8.6 KM/H
22:00Senin12.3°11.6°0%74%ESE 9 KM/H
23:00Senin11.7°10.9°0%74%ESE 9 KM/H




tutorials